Time;durP1;ratioP1;P1;durP2;ratioP2;P2;SDS_P1;SDS_P2;PMS_P1;PMS_P2;Temp;Humidity;BMP_temperature;BMP_pressure;BME280_temperature;BME280_humidity;BME280_pressure;Samples;Min_cycle;Max_cycle;Signal;HPM_P1;HPM_P2
2021/01/07 00:02:10;;;;;;;18.38;9.20;;;20.00;37.60;;;;;;5068835;28;20039;-75
2021/01/07 00:04:35;;;;;;;14.77;8.07;;;20.00;37.70;;;;;;5085121;28;20058;-72
2021/01/07 00:07:01;;;;;;;20.02;10.02;;;20.00;37.70;;;;;;5057081;28;20411;-72
2021/01/07 00:09:27;;;;;;;16.55;8.23;;;19.90;37.70;;;;;;5083661;28;20027;-73
2021/01/07 00:11:52;;;;;;;16.73;9.30;;;19.90;37.80;;;;;;5081279;28;20017;-73
2021/01/07 00:14:18;;;;;;;19.20;10.18;;;19.90;37.80;;;;;;5091823;28;20118;-74
2021/01/07 00:16:44;;;;;;;13.43;6.43;;;19.90;37.80;;;;;;5065122;28;20016;-75
2021/01/07 00:19:09;;;;;;;21.50;10.38;;;19.90;37.80;;;;;;5084235;28;20024;-75
2021/01/07 00:21:35;;;;;;;22.25;12.18;;;19.80;37.70;;;;;;5081812;28;20024;-73
2021/01/07 00:24:00;;;;;;;22.25;10.82;;;19.80;37.80;;;;;;5085043;28;20032;-74
2021/01/07 00:26:26;;;;;;;22.33;10.30;;;19.80;37.70;;;;;;5059025;28;20117;-75
2021/01/07 00:28:52;;;;;;;21.55;10.80;;;19.80;37.80;;;;;;5070481;28;20041;-75
2021/01/07 00:31:17;;;;;;;17.70;8.95;;;19.80;37.80;;;;;;5052513;28;20062;-74
2021/01/07 00:33:43;;;;;;;17.33;9.70;;;19.80;37.80;;;;;;5093233;28;20036;-75
2021/01/07 00:36:09;;;;;;;22.48;11.70;;;19.70;37.80;;;;;;5062541;28;20102;-74
2021/01/07 00:38:35;;;;;;;20.00;10.68;;;19.70;37.80;;;;;;5049613;28;20039;-75
2021/01/07 00:41:29;;;;;;;24.77;12.90;;;19.70;37.80;;;;;;5070212;28;20020;-74
2021/01/07 00:43:54;;;;;;;21.67;11.10;;;19.70;37.80;;;;;;5061095;28;20048;-75
2021/01/07 00:46:20;;;;;;;20.25;10.25;;;19.70;37.80;;;;;;5068043;28;20035;-76
2021/01/07 00:48:47;;;;;;;18.52;10.13;;;19.70;37.90;;;;;;5086409;28;20035;-76
2021/01/07 00:51:12;;;;;;;21.52;11.20;;;19.70;37.80;;;;;;5092488;28;20095;-74
2021/01/07 00:53:38;;;;;;;23.02;10.40;;;19.70;37.80;;;;;;5066673;28;20145;-75
2021/01/07 00:56:04;;;;;;;26.63;13.13;;;19.70;37.80;;;;;;5077184;28;20023;-74
2021/01/07 00:58:29;;;;;;;19.58;9.93;;;19.70;37.80;;;;;;5079973;28;20032;-69
2021/01/07 01:00:55;;;;;;;13.02;5.85;;;19.70;37.80;;;;;;5057452;28;20032;-69
2021/01/07 01:03:30;;;;;;;24.02;10.18;;;19.70;37.80;;;;;;5029893;28;20423;-69
2021/01/07 01:05:55;;;;;;;20.48;11.20;;;19.60;37.70;;;;;;5068245;28;20021;-74
2021/01/07 01:08:21;;;;;;;21.45;10.88;;;19.70;37.80;;;;;;5094382;28;20061;-75
2021/01/07 01:10:46;;;;;;;20.58;10.85;;;19.70;37.80;;;;;;5074826;28;20036;-75
2021/01/07 01:13:12;;;;;;;18.25;8.80;;;19.60;37.70;;;;;;5075406;28;20028;-69
2021/01/07 01:15:41;;;;;;;20.00;9.68;;;19.60;37.70;;;;;;5094388;28;20091;-69
2021/01/07 01:18:08;;;;;;;22.35;11.05;;;19.60;37.80;;;;;;5042554;28;20043;-69
2021/01/07 01:20:34;;;;;;;20.77;11.10;;;19.60;37.70;;;;;;5086574;28;20099;-69
2021/01/07 01:22:59;;;;;;;22.73;11.82;;;19.60;37.70;;;;;;5058006;28;20120;-69
2021/01/07 01:25:25;;;;;;;34.15;10.02;;;19.60;37.80;;;;;;5086101;28;20527;-69
2021/01/07 01:27:51;;;;;;;24.85;9.48;;;19.60;37.80;;;;;;5075946;28;20508;-74
2021/01/07 01:30:16;;;;;;;22.83;10.18;;;19.60;37.80;;;;;;5086717;28;20056;-76
2021/01/07 01:32:43;;;;;;;17.30;7.13;;;19.50;37.70;;;;;;5058665;28;20057;-69
2021/01/07 01:35:09;;;;;;;26.17;12.30;;;19.50;37.80;;;;;;5057628;28;20099;-69
2021/01/07 01:37:35;;;;;;;26.48;12.75;;;19.50;37.70;;;;;;5072380;28;20036;-69
2021/01/07 01:40:02;;;;;;;24.58;12.77;;;19.50;37.80;;;;;;5067808;28;20024;-69
2021/01/07 01:42:28;;;;;;;23.70;11.15;;;19.50;37.80;;;;;;5067046;28;20036;-69
2021/01/07 01:44:54;;;;;;;24.10;11.82;;;19.50;37.90;;;;;;5061441;28;20035;-69
2021/01/07 01:47:20;;;;;;;21.38;11.27;;;19.50;37.90;;;;;;5075163;28;20563;-69
2021/01/07 01:49:52;;;;;;;23.20;11.93;;;19.50;37.90;;;;;;5074943;28;20025;-69
2021/01/07 01:52:18;;;;;;;22.77;12.07;;;19.40;37.80;;;;;;5055507;28;20036;-69
2021/01/07 01:54:44;;;;;;;22.17;10.98;;;19.40;37.90;;;;;;5068363;28;20522;-69
2021/01/07 01:57:12;;;;;;;27.27;13.02;;;19.40;37.90;;;;;;5077324;28;20031;-69
2021/01/07 01:59:37;;;;;;;21.67;11.00;;;19.40;37.90;;;;;;5076088;28;20043;-69
2021/01/07 02:02:18;;;;;;;24.08;11.30;;;19.40;37.90;;;;;;5073970;28;20426;-69
2021/01/07 02:04:44;;;;;;;18.73;9.43;;;19.40;38.00;;;;;;5060973;28;20084;-69
2021/01/07 02:07:12;;;;;;;19.50;8.45;;;19.40;37.90;;;;;;5090115;28;20170;-69
2021/01/07 02:09:38;;;;;;;22.35;10.80;;;19.40;38.00;;;;;;5057318;28;20025;-70
2021/01/07 02:12:03;;;;;;;21.42;11.38;;;19.30;37.90;;;;;;5066669;28;20027;-69
2021/01/07 02:14:42;;;;;;;24.60;12.10;;;19.30;37.90;;;;;;5056428;28;20036;-69
2021/01/07 02:17:08;;;;;;;23.92;11.32;;;19.30;37.90;;;;;;5072882;28;20476;-69
2021/01/07 02:19:49;;;;;;;23.88;11.90;;;19.30;37.90;;;;;;5058247;28;20056;-69
2021/01/07 02:22:15;;;;;;;22.17;10.80;;;19.30;37.90;;;;;;5063385;28;20056;-69
2021/01/07 02:24:41;;;;;;;23.90;11.95;;;19.30;37.90;;;;;;5068464;28;20027;-69
2021/01/07 02:27:10;;;;;;;14.07;6.40;;;19.30;37.80;;;;;;5070132;28;20046;-69
2021/01/07 02:29:36;;;;;;;27.77;13.90;;;19.30;37.80;;;;;;5059128;28;20056;-69
2021/01/07 02:32:06;;;;;;;16.27;7.18;;;19.30;37.80;;;;;;5056873;28;20048;-69
2021/01/07 02:34:31;;;;;;;14.02;5.85;;;19.30;37.80;;;;;;5057059;28;20488;-69
2021/01/07 02:36:57;;;;;;;17.58;7.30;;;19.30;37.80;;;;;;5072220;28;20012;-69
2021/01/07 02:39:43;;;;;;;1.05;0.82;;;19.30;37.80;;;;;;5076212;28;20062;-69
2021/01/07 02:42:08;;;;;;;26.95;13.13;;;19.30;37.80;;;;;;5073765;28;20039;-69
2021/01/07 02:44:34;;;;;;;20.95;9.82;;;19.20;37.70;;;;;;5085717;28;20027;-69
2021/01/07 02:47:15;;;;;;;24.67;13.32;;;19.20;37.70;;;;;;5054591;28;20089;-70
2021/01/07 02:49:41;;;;;;;21.13;13.75;;;19.20;37.80;;;;;;5072455;28;20074;-69
2021/01/07 02:52:06;;;;;;;27.77;13.65;;;19.20;37.80;;;;;;5086407;28;20044;-69
2021/01/07 02:54:32;;;;;;;28.30;13.38;;;19.20;37.90;;;;;;5081815;28;20058;-69
2021/01/07 02:56:57;;;;;;;28.40;12.70;;;19.20;37.80;;;;;;5086517;28;20036;-69
2021/01/07 02:59:23;;;;;;;24.27;12.35;;;19.20;37.80;;;;;;5078612;28;20024;-69
2021/01/07 03:01:48;;;;;;;36.35;10.60;;;19.20;37.80;;;;;;5087230;28;20095;-69
2021/01/07 03:04:14;;;;;;;21.67;10.10;;;19.20;37.80;;;;;;5078395;28;20029;-74
2021/01/07 03:06:49;;;;;;;23.20;11.57;;;19.20;37.80;;;;;;5090241;28;20078;-75
2021/01/07 03:09:14;;;;;;;15.18;6.72;;;19.20;37.80;;;;;;5083145;28;20071;-74
2021/01/07 03:11:40;;;;;;;28.25;17.50;;;19.20;37.80;;;;;;5072894;28;20476;-75
2021/01/07 03:14:05;;;;;;;24.67;12.75;;;19.20;37.80;;;;;;5045364;28;20028;-75
2021/01/07 03:16:31;;;;;;;0.47;0.43;;;19.20;37.90;;;;;;5070276;28;20037;-74
2021/01/07 03:18:57;;;;;;;0.10;0.10;;;19.10;37.80;;;;;;5042218;28;20032;-75
2021/01/07 03:21:22;;;;;;;0.57;0.43;;;19.20;37.80;;;;;;5091633;28;20036;-69
2021/01/07 03:23:48;;;;;;;0.30;0.30;;;19.10;38.40;;;;;;5087581;28;20081;-69
2021/01/07 03:26:16;;;;;;;0.03;0.03;;;19.10;37.80;;;;;;5092079;28;20072;-69
2021/01/07 03:28:42;;;;;;;1.48;0.65;;;19.10;37.80;;;;;;5086839;28;20049;-75
2021/01/07 03:31:09;;;;;;;0.32;0.32;;;19.10;37.80;;;;;;5054866;28;20064;-75
2021/01/07 03:33:34;;;;;;;1.17;0.75;;;19.20;37.80;;;;;;5076548;28;20492;-75
2021/01/07 03:36:00;;;;;;;1.45;0.50;;;19.10;37.80;;;;;;5072317;28;20035;-75
2021/01/07 03:38:26;;;;;;;0.00;0.00;;;19.10;37.80;;;;;;5089622;28;20016;-75
2021/01/07 03:40:52;;;;;;;8.45;0.82;;;19.10;37.80;;;;;;5071659;28;20115;-75
2021/01/07 03:43:17;;;;;;;0.10;0.10;;;19.10;37.80;;;;;;5092237;28;20444;-76
2021/01/07 03:45:43;;;;;;;0.17;0.17;;;19.10;37.80;;;;;;5072137;28;20081;-74
2021/01/07 03:48:12;;;;;;;0.52;0.45;;;19.10;37.90;;;;;;5088905;28;20024;-75
2021/01/07 03:50:37;;;;;;;0.47;0.47;;;19.10;37.90;;;;;;5092213;28;20027;-74
2021/01/07 03:53:03;;;;;;;0.45;0.45;;;19.00;37.80;;;;;;5090939;28;20034;-75
2021/01/07 03:55:28;;;;;;;0.45;0.45;;;19.10;37.90;;;;;;5074773;28;20032;-74
2021/01/07 03:57:54;;;;;;;0.85;0.63;;;19.10;37.80;;;;;;5087362;28;20538;-75
2021/01/07 04:00:20;;;;;;;0.30;0.20;;;19.00;37.80;;;;;;5082229;28;20039;-74
2021/01/07 04:02:46;;;;;;;0.45;0.43;;;19.00;37.80;;;;;;5081670;28;20103;-74
2021/01/07 04:05:11;;;;;;;0.70;0.25;;;19.10;37.80;;;;;;5056550;28;20036;-74
2021/01/07 04:07:37;;;;;;;0.63;0.63;;;19.00;37.80;;;;;;5056157;28;20036;-75
2021/01/07 04:10:07;;;;;;;2.22;0.73;;;19.00;37.70;;;;;;5085864;28;20043;-75
2021/01/07 04:12:33;;;;;;;0.30;0.30;;;19.00;37.80;;;;;;5074725;28;20016;-75
2021/01/07 04:15:00;;;;;;;0.05;0.03;;;19.00;37.70;;;;;;5079626;28;20051;-74
2021/01/07 04:17:25;;;;;;;7.30;0.63;;;19.00;37.70;;;;;;5076646;28;20032;-75
2021/01/07 04:19:51;;;;;;;0.10;0.10;;;19.00;37.80;;;;;;5081113;28;20032;-75
2021/01/07 04:22:16;;;;;;;0.38;0.38;;;19.00;37.70;;;;;;5095441;28;20032;-74
2021/01/07 04:24:42;;;;;;;0.30;0.28;;;19.00;37.70;;;;;;5067367;28;20127;-74
2021/01/07 04:27:07;;;;;;;0.25;0.25;;;19.00;38.40;;;;;;5096077;28;20085;-75
2021/01/07 04:29:33;;;;;;;0.65;0.20;;;19.00;37.70;;;;;;5097130;28;20055;-74
2021/01/07 04:31:58;;;;;;;0.20;0.20;;;19.00;37.70;;;;;;5087738;28;20035;-74
2021/01/07 04:34:24;;;;;;;2.30;0.55;;;19.00;38.40;;;;;;5087000;28;20031;-74
2021/01/07 04:36:49;;;;;;;0.52;0.52;;;19.00;37.80;;;;;;5063483;28;20063;-75
2021/01/07 04:39:16;;;;;;;0.55;0.47;;;19.00;37.70;;;;;;5057631;28;20442;-75
2021/01/07 04:41:41;;;;;;;0.10;0.10;;;19.00;37.70;;;;;;5073851;28;20074;-75
2021/01/07 04:44:07;;;;;;;0.30;0.20;;;19.00;37.70;;;;;;5086195;28;20036;-74
2021/01/07 04:46:32;;;;;;;0.52;0.52;;;19.00;37.70;;;;;;5075675;28;20431;-74
2021/01/07 04:48:58;;;;;;;0.68;0.68;;;18.90;37.70;;;;;;5076610;28;20411;-75
2021/01/07 04:51:23;;;;;;;3.20;0.43;;;18.90;37.80;;;;;;5090708;28;20032;-74
2021/01/07 04:57:11;;;;;;;0.17;0.17;;;18.90;37.80;;;;;;5081616;28;20022;-75
2021/01/07 04:59:37;;;;;;;0.60;0.60;;;18.90;37.90;;;;;;5073980;28;20040;-74
2021/01/07 05:02:02;;;;;;;0.43;0.43;;;18.90;37.90;;;;;;5068261;28;20024;-75
2021/01/07 05:04:28;;;;;;;1.08;0.52;;;18.90;38.50;;;;;;5076363;28;20028;-76
2021/01/07 05:06:54;;;;;;;0.90;0.30;;;18.80;37.90;;;;;;5067137;28;20034;-76
2021/01/07 05:09:19;;;;;;;0.13;0.13;;;18.90;37.90;;;;;;5058297;28;20051;-76
2021/01/07 05:11:45;;;;;;;0.52;0.35;;;18.90;37.80;;;;;;5063961;28;20025;-74
2021/01/07 05:14:10;;;;;;;0.30;0.30;;;18.90;37.80;;;;;;5094176;28;20024;-74
2021/01/07 05:16:36;;;;;;;0.82;0.82;;;19.00;37.70;;;;;;5080019;28;20071;-74
2021/01/07 05:19:04;;;;;;;1.70;0.82;;;19.10;37.60;;;;;;5076008;28;20419;-74
2021/01/07 05:24:51;;;;;;;0.50;0.22;;;19.30;37.40;;;;;;5089419;28;20115;-69
2021/01/07 05:27:17;;;;;;;0.20;0.20;;;19.50;37.20;;;;;;5066209;28;20051;-69
2021/01/07 05:29:43;;;;;;;1.23;0.35;;;19.50;36.90;;;;;;5075083;28;20044;-69
2021/01/07 05:32:10;;;;;;;0.30;0.13;;;19.60;36.80;;;;;;5071564;28;20040;-69
2021/01/07 05:34:48;;;;;;;0.30;0.30;;;19.70;37.30;;;;;;5076408;28;20081;-69
2021/01/07 05:37:17;;;;;;;0.80;0.70;;;19.90;36.50;;;;;;5068014;28;20070;-69
2021/01/07 05:39:47;;;;;;;0.00;0.00;;;20.00;36.30;;;;;;5058183;28;20067;-69
2021/01/07 05:42:21;;;;;;;0.32;0.10;;;20.00;36.10;;;;;;5080801;28;20032;-69
2021/01/07 05:44:47;;;;;;;0.55;0.52;;;20.10;36.00;;;;;;5060602;28;20530;-69
2021/01/07 05:47:28;;;;;;;0.38;0.38;;;20.20;36.00;;;;;;5068044;28;20063;-69
2021/01/07 05:49:56;;;;;;;0.22;0.22;;;20.20;35.90;;;;;;5091127;28;20035;-69
2021/01/07 05:52:22;;;;;;;0.30;0.30;;;20.20;35.80;;;;;;5094079;28;20028;-69
2021/01/07 05:54:49;;;;;;;0.35;0.35;;;20.20;35.90;;;;;;5059983;28;20496;-69
2021/01/07 05:57:14;;;;;;;0.30;0.30;;;20.20;35.80;;;;;;5069347;28;20016;-69
2021/01/07 05:59:40;;;;;;;0.98;0.68;;;20.30;35.80;;;;;;5059123;28;20530;-69
2021/01/07 06:02:08;;;;;;;4.53;0.30;;;20.30;35.80;;;;;;5072553;28;20440;-74
2021/01/07 06:04:33;;;;;;;0.20;0.20;;;20.30;35.80;;;;;;5057998;28;20480;-73
2021/01/07 06:07:00;;;;;;;0.00;0.00;;;20.30;35.90;;;;;;5068805;28;20070;-74
2021/01/07 06:09:30;;;;;;;1.52;0.65;;;20.20;35.90;;;;;;5074447;28;20044;-74
2021/01/07 06:11:59;;;;;;;0.15;0.15;;;20.30;35.90;;;;;;5070362;28;20495;-73
2021/01/07 06:14:25;;;;;;;0.00;0.00;;;20.30;35.90;;;;;;5090487;28;20035;-75
2021/01/07 06:16:55;;;;;;;0.40;0.28;;;20.30;35.90;;;;;;5070771;28;20024;-74
2021/01/07 06:19:31;;;;;;;0.10;0.10;;;20.30;36.00;;;;;;5088540;28;20107;-75
2021/01/07 06:21:59;;;;;;;0.10;0.10;;;20.30;36.00;;;;;;5091401;28;20058;-75
2021/01/07 06:24:30;;;;;;;0.10;0.10;;;20.30;35.90;;;;;;5082297;28;20028;-74
2021/01/07 06:26:56;;;;;;;0.40;0.40;;;20.30;35.90;;;;;;5073954;28;20241;-73
2021/01/07 06:29:22;;;;;;;0.40;0.28;;;20.40;36.00;;;;;;5074331;28;20052;-73
2021/01/07 06:31:56;;;;;;;0.82;0.50;;;20.40;36.10;;;;;;5091226;28;20057;-73
2021/01/07 06:34:25;;;;;;;0.25;0.20;;;20.40;36.00;;;;;;5093210;28;20020;-73
2021/01/07 06:36:52;;;;;;;0.40;0.22;;;20.40;35.90;;;;;;5057704;28;20028;-74
2021/01/07 06:39:20;;;;;;;0.45;0.45;;;20.40;36.00;;;;;;5070596;28;20487;-74
2021/01/07 06:41:53;;;;;;;0.30;0.10;;;20.40;36.00;;;;;;5074923;28;20028;-75
2021/01/07 06:44:19;;;;;;;0.75;0.30;;;20.40;36.00;;;;;;5074421;28;20419;-75
2021/01/07 06:46:48;;;;;;;0.40;0.40;;;20.50;36.10;;;;;;5058448;28;20023;-74
2021/01/07 06:49:21;;;;;;;0.20;0.20;;;20.40;36.00;;;;;;5092204;28;20035;-74
2021/01/07 06:52:02;;;;;;;0.20;0.20;;;20.50;36.10;;;;;;5069438;28;20033;-74
2021/01/07 06:54:46;;;;;;;0.22;0.10;;;20.50;36.10;;;;;;5088363;28;20074;-74
2021/01/07 06:57:18;;;;;;;0.35;0.17;;;20.50;36.00;;;;;;5050643;28;20057;-74
2021/01/07 07:00:00;;;;;;;0.00;0.00;;;20.50;36.10;;;;;;5057054;28;20468;-74
2021/01/07 07:02:26;;;;;;;0.08;0.08;;;20.50;36.10;;;;;;5089898;28;20464;-74
2021/01/07 07:05:18;;;;;;;0.00;0.00;;;20.50;36.20;;;;;;5072351;28;20108;-73
2021/01/07 07:08:06;;;;;;;0.77;0.70;;;20.50;36.20;;;;;;5054662;28;20530;-75
2021/01/07 07:10:34;;;;;;;0.90;0.47;;;20.50;36.20;;;;;;5092438;28;20024;-74
2021/01/07 07:13:16;;;;;;;0.10;0.00;;;20.50;36.20;;;;;;5081704;28;20446;-74
2021/01/07 07:15:41;;;;;;;0.45;0.45;;;20.50;36.20;;;;;;5054199;28;20112;-74
2021/01/07 07:18:07;;;;;;;0.35;0.35;;;20.50;36.30;;;;;;5060172;28;20100;-74
2021/01/07 07:20:38;;;;;;;0.13;0.13;;;20.50;36.20;;;;;;5066142;28;20056;-74
2021/01/07 07:23:12;;;;;;;0.22;0.15;;;20.50;36.30;;;;;;5046260;28;20079;-75
2021/01/07 07:25:37;;;;;;;3.20;0.40;;;20.50;36.30;;;;;;5050727;28;20458;-74
2021/01/07 07:28:04;;;;;;;0.35;0.35;;;20.50;36.30;;;;;;5059430;28;20048;-75
2021/01/07 07:30:33;;;;;;;0.20;0.20;;;20.50;36.30;;;;;;5059489;28;20487;-75
2021/01/07 07:32:59;;;;;;;0.35;0.35;;;20.50;36.30;;;;;;5077129;28;20372;-75
2021/01/07 07:35:26;;;;;;;0.32;0.32;;;20.50;36.40;;;;;;5040590;28;20049;-76
2021/01/07 07:37:52;;;;;;;0.30;0.20;;;20.50;36.40;;;;;;5084099;28;20027;-74
2021/01/07 07:40:34;;;;;;;1.80;0.60;;;20.50;36.40;;;;;;5071083;28;20111;-74
2021/01/07 07:43:00;;;;;;;0.10;0.10;;;20.50;36.50;;;;;;5038348;28;20032;-73
2021/01/07 07:45:30;;;;;;;0.17;0.08;;;20.50;36.40;;;;;;5060264;28;20055;-75
2021/01/07 07:47:55;;;;;;;0.03;0.03;;;20.50;36.40;;;;;;5084248;28;20021;-75
2021/01/07 07:50:28;;;;;;;0.57;0.10;;;20.50;36.50;;;;;;5073200;28;20036;-74
2021/01/07 07:53:06;;;;;;;0.82;0.52;;;20.50;36.50;;;;;;5068296;28;20029;-74
2021/01/07 07:55:35;;;;;;;0.73;0.10;;;20.50;36.50;;;;;;5086761;28;20024;-74
2021/01/07 07:58:07;;;;;;;0.00;0.00;;;20.50;36.50;;;;;;5081575;28;20332;-74
2021/01/07 08:00:33;;;;;;;1.55;0.60;;;20.50;37.20;;;;;;5087867;28;20023;-74
2021/01/07 08:02:58;;;;;;;1.98;0.35;;;20.50;36.60;;;;;;5087888;28;20028;-73
2021/01/07 08:05:26;;;;;;;2.53;0.75;;;20.50;36.60;;;;;;5061512;28;20036;-74
2021/01/07 08:07:52;;;;;;;0.20;0.20;;;20.50;37.30;;;;;;5081921;28;20028;-75
2021/01/07 08:10:17;;;;;;;0.47;0.30;;;20.50;36.60;;;;;;5071340;28;20016;-75
2021/01/07 08:12:43;;;;;;;0.00;0.00;;;20.50;36.60;;;;;;5096427;28;20428;-75
2021/01/07 08:15:09;;;;;;;1.88;0.85;;;20.50;36.70;;;;;;5068126;28;20043;-75
2021/01/07 08:17:35;;;;;;;0.47;0.30;;;20.50;36.70;;;;;;5062289;28;20104;-75
2021/01/07 08:20:00;;;;;;;0.30;0.30;;;20.50;36.80;;;;;;5060142;28;20059;-74
2021/01/07 08:22:29;;;;;;;0.00;0.00;;;20.50;36.80;;;;;;5081938;28;20035;-74
2021/01/07 08:24:57;;;;;;;0.20;0.20;;;20.50;36.80;;;;;;5098326;28;20035;-74
2021/01/07 08:27:25;;;;;;;0.30;0.28;;;20.50;36.80;;;;;;5064703;28;20027;-74
2021/01/07 08:29:51;;;;;;;0.00;0.00;;;20.50;36.70;;;;;;5077501;28;20123;-75
2021/01/07 08:32:18;;;;;;;0.28;0.28;;;20.60;36.70;;;;;;5062139;28;20040;-74
2021/01/07 08:34:45;;;;;;;0.35;0.35;;;20.60;36.70;;;;;;5060784;28;20020;-75
2021/01/07 08:37:12;;;;;;;0.38;0.38;;;20.60;36.60;;;;;;5099734;28;20016;-75
2021/01/07 08:39:39;;;;;;;0.45;0.25;;;20.60;36.60;;;;;;5078702;28;20111;-74
2021/01/07 08:42:05;;;;;;;0.28;0.28;;;20.60;36.50;;;;;;5082396;28;20020;-73
2021/01/07 08:44:31;;;;;;;0.03;0.03;;;20.60;36.50;;;;;;5105128;28;20050;-75
2021/01/07 08:46:56;;;;;;;0.20;0.20;;;20.60;36.50;;;;;;5094381;28;20503;-73
2021/01/07 08:49:37;;;;;;;0.10;0.10;;;20.60;36.50;;;;;;5095810;28;20048;-75
2021/01/07 08:52:03;;;;;;;0.10;0.10;;;20.60;36.50;;;;;;5098677;28;20024;-75
2021/01/07 08:54:29;;;;;;;0.10;0.00;;;20.60;36.50;;;;;;5095344;28;20024;-74
2021/01/07 08:56:56;;;;;;;0.00;0.00;;;20.60;36.50;;;;;;5098900;28;20020;-76
2021/01/07 08:59:39;;;;;;;0.10;0.10;;;20.70;36.50;;;;;;5042283;28;20441;-76
2021/01/07 09:02:04;;;;;;;0.00;0.00;;;20.70;36.50;;;;;;5062765;28;20544;-76
2021/01/07 09:04:43;;;;;;;1.80;0.90;;;20.70;36.50;;;;;;5098239;28;20040;-76
2021/01/07 09:07:09;;;;;;;0.05;0.05;;;20.70;37.10;;;;;;5083205;28;20028;-73
2021/01/07 09:09:54;;;;;;;0.30;0.30;;;20.70;36.50;;;;;;5102480;28;20578;-75
2021/01/07 09:12:20;;;;;;;0.60;0.37;;;20.70;36.50;;;;;;5081363;28;20056;-75
2021/01/07 09:14:57;;;;;;;0.00;0.00;;;20.70;36.60;;;;;;5097526;28;20016;-72
2021/01/07 09:17:43;;;;;;;0.10;0.10;;;20.70;36.50;;;;;;5095027;28;20016;-72
2021/01/07 09:20:17;;;;;;;0.00;0.00;;;20.70;36.50;;;;;;5073597;28;20055;-75
2021/01/07 09:22:43;;;;;;;0.52;0.45;;;20.80;36.50;;;;;;5110036;28;20027;-75
2021/01/07 09:25:10;;;;;;;0.50;0.50;;;20.80;36.50;;;;;;5071592;28;20204;-75
2021/01/07 09:27:51;;;;;;;0.47;0.45;;;20.80;36.40;;;;;;5046738;28;20032;-74
2021/01/07 09:30:17;;;;;;;0.05;0.05;;;20.80;36.30;;;;;;5083144;28;20045;-75
2021/01/07 09:32:43;;;;;;;0.20;0.03;;;20.80;36.30;;;;;;5076226;28;20029;-76
2021/01/07 09:35:10;;;;;;;0.20;0.20;;;20.80;36.20;;;;;;5099126;28;20040;-75
2021/01/07 09:40:57;;;;;;;2.30;0.38;;;20.80;36.00;;;;;;5094743;28;20070;-75
2021/01/07 09:43:23;;;;;;;0.00;0.00;;;20.80;36.00;;;;;;5104746;28;20024;-74
2021/01/07 09:45:49;;;;;;;0.10;0.10;;;20.80;36.00;;;;;;5085998;28;20008;-75
2021/01/07 09:48:14;;;;;;;0.10;0.10;;;20.80;36.00;;;;;;5105451;28;20370;-73
2021/01/07 09:50:40;;;;;;;0.30;0.30;;;20.70;36.00;;;;;;5105456;28;20058;-74
2021/01/07 09:53:07;;;;;;;0.08;0.08;;;20.70;36.00;;;;;;5086885;28;20480;-74
2021/01/07 09:55:32;;;;;;;0.10;0.10;;;20.80;36.10;;;;;;5086899;28;20507;-74
2021/01/07 09:57:58;;;;;;;0.03;0.00;;;20.70;36.70;;;;;;5084845;28;20044;-74
2021/01/07 10:00:23;;;;;;;0.10;0.10;;;20.70;36.20;;;;;;5104010;28;20050;-75
2021/01/07 10:02:50;;;;;;;0.08;0.08;;;20.70;36.20;;;;;;5083708;28;20024;-73
2021/01/07 10:05:53;;;;;;;0.55;0.10;;;20.70;36.10;;;;;;5096057;28;20063;-73
2021/01/07 10:08:18;;;;;;;0.00;0.00;;;20.70;36.20;;;;;;5078136;28;20076;-74
2021/01/07 10:10:44;;;;;;;0.00;0.00;;;20.70;36.20;;;;;;5100808;28;20024;-73
2021/01/07 10:13:09;;;;;;;0.10;0.10;;;20.70;36.20;;;;;;5063110;28;20040;-74
2021/01/07 10:15:35;;;;;;;0.10;0.10;;;20.70;36.20;;;;;;5100597;28;20030;-75
2021/01/07 10:18:01;;;;;;;0.00;0.00;;;20.70;36.20;;;;;;5080319;28;20032;-76
2021/01/07 10:20:26;;;;;;;0.00;0.00;;;20.70;36.20;;;;;;5094926;28;20050;-75
2021/01/07 10:23:36;;;;;;;0.00;0.00;;;20.70;36.20;;;;;;5061428;28;20067;-77
2021/01/07 10:26:02;;;;;;;0.00;0.00;;;20.70;36.20;;;;;;5093619;28;20028;-78
2021/01/07 10:28:27;;;;;;;0.17;0.10;;;20.70;36.30;;;;;;5070358;28;20044;-75
2021/01/07 10:30:53;;;;;;;0.00;0.00;;;20.70;36.30;;;;;;5098436;28;20111;-73
2021/01/07 10:33:19;;;;;;;0.00;0.00;;;20.80;36.40;;;;;;5093543;28;20017;-75
2021/01/07 10:35:48;;;;;;;0.20;0.17;;;20.80;36.30;;;;;;5102662;28;20047;-74
2021/01/07 10:38:23;;;;;;;0.10;0.10;;;20.80;36.30;;;;;;5098332;28;20020;-75
2021/01/07 10:40:50;;;;;;;0.63;0.40;;;20.80;36.30;;;;;;5068841;28;20028;-73
2021/01/07 10:43:15;;;;;;;0.00;0.00;;;20.80;36.30;;;;;;5085083;28;20442;-75
2021/01/07 10:45:41;;;;;;;0.00;0.00;;;20.80;36.30;;;;;;5058664;28;20036;-74
2021/01/07 10:48:14;;;;;;;0.00;0.00;;;20.80;36.30;;;;;;5092284;28;20029;-73
2021/01/07 10:50:46;;;;;;;0.25;0.20;;;20.80;36.50;;;;;;5077323;28;20028;-74
2021/01/07 10:53:29;;;;;;;0.80;0.10;;;20.80;36.20;;;;;;5060128;28;20452;-74
2021/01/07 10:56:05;;;;;;;0.10;0.10;;;20.80;36.20;;;;;;5076668;28;20020;-73
2021/01/07 11:01:46;;;;;;;0.00;0.00;;;20.80;36.20;;;;;;5086223;28;20033;-73
2021/01/07 11:04:37;;;;;;;0.20;0.20;;;20.90;36.20;;;;;;5076668;28;20047;-74
2021/01/07 11:07:05;;;;;;;0.52;0.10;;;20.90;36.20;;;;;;5086842;28;20487;-74
2021/01/07 11:09:33;;;;;;;0.00;0.00;;;20.90;36.20;;;;;;5083636;28;20044;-75
2021/01/07 11:12:02;;;;;;;0.08;0.08;;;21.00;36.30;;;;;;5087194;28;20050;-77
2021/01/07 11:14:31;;;;;;;0.05;0.05;;;20.90;36.00;;;;;;5064965;28;20115;-74
2021/01/07 11:17:00;;;;;;;0.00;0.00;;;21.00;36.00;;;;;;5072447;28;20028;-74
2021/01/07 11:19:26;;;;;;;0.00;0.00;;;21.00;36.00;;;;;;5061127;28;20036;-75
2021/01/07 11:22:02;;;;;;;0.00;0.00;;;21.00;36.20;;;;;;5077144;28;20507;-75
2021/01/07 11:24:27;;;;;;;0.70;0.70;;;21.00;36.20;;;;;;5070849;28;20052;-74
2021/01/07 11:26:54;;;;;;;0.00;0.00;;;21.00;36.30;;;;;;5044420;28;20048;-72
2021/01/07 11:29:20;;;;;;;0.15;0.08;;;21.00;36.30;;;;;;5069472;28;20051;-72
2021/01/07 11:31:45;;;;;;;0.10;0.10;;;21.00;36.30;;;;;;5068690;28;20020;-73
2021/01/07 11:34:12;;;;;;;0.00;0.00;;;21.00;36.40;;;;;;5061839;28;20036;-72
2021/01/07 11:36:51;;;;;;;0.45;0.25;;;21.00;36.30;;;;;;5088293;28;20020;-73
2021/01/07 11:39:17;;;;;;;0.00;0.00;;;21.00;36.30;;;;;;5094204;28;20021;-72
2021/01/07 11:42:04;;;;;;;0.08;0.08;;;21.00;36.30;;;;;;5045987;28;20111;-73
2021/01/07 11:44:49;;;;;;;2.50;1.02;;;21.00;36.20;;;;;;5076573;28;20506;-72
2021/01/07 11:47:15;;;;;;;0.10;0.10;;;21.10;36.10;;;;;;5088314;28;20059;-73
2021/01/07 11:49:41;;;;;;;0.35;0.35;;;21.10;35.90;;;;;;5072048;28;20416;-74
2021/01/07 11:52:08;;;;;;;0.00;0.00;;;21.20;35.90;;;;;;5090350;28;20035;-74
2021/01/07 11:54:38;;;;;;;0.00;0.00;;;21.20;36.30;;;;;;5060696;28;20491;-73
2021/01/07 11:57:11;;;;;;;0.10;0.03;;;21.20;35.70;;;;;;5063523;28;20017;-73
2021/01/07 11:59:37;;;;;;;0.22;0.10;;;21.20;35.60;;;;;;5068798;28;20033;-74
2021/01/07 12:02:06;;;;;;;0.00;0.00;;;21.20;35.60;;;;;;5084545;28;20028;-74
2021/01/07 12:04:32;;;;;;;0.10;0.10;;;21.20;35.60;;;;;;5073069;28;20056;-74
2021/01/07 12:07:04;;;;;;;0.03;0.03;;;21.20;35.60;;;;;;5078551;28;20429;-72
2021/01/07 12:09:38;;;;;;;0.20;0.20;;;21.20;35.60;;;;;;5055842;28;20082;-73
2021/01/07 12:12:06;;;;;;;0.00;0.00;;;21.20;36.20;;;;;;5069576;28;20078;-73
2021/01/07 12:14:51;;;;;;;0.00;0.00;;;21.10;35.70;;;;;;5073730;28;20532;-72
2021/01/07 12:17:16;;;;;;;0.10;0.10;;;21.20;35.90;;;;;;5077422;28;20012;-72
2021/01/07 12:19:42;;;;;;;0.05;0.05;;;21.10;35.90;;;;;;5043451;28;20139;-72
2021/01/07 12:22:08;;;;;;;0.00;0.00;;;21.10;36.00;;;;;;5058466;28;20403;-69
2021/01/07 12:24:34;;;;;;;0.00;0.00;;;21.10;36.10;;;;;;5077544;28;20028;-69
2021/01/07 12:27:01;;;;;;;0.00;0.00;;;21.10;36.20;;;;;;5094243;28;20017;-69
2021/01/07 12:29:45;;;;;;;0.00;0.00;;;21.10;36.30;;;;;;5056944;28;20393;-69
2021/01/07 12:32:30;;;;;;;0.00;0.00;;;21.10;36.30;;;;;;5052206;28;20062;-69
2021/01/07 12:35:06;;;;;;;0.00;0.00;;;21.10;36.30;;;;;;5076701;28;20461;-69
2021/01/07 12:38:04;;;;;;;0.00;0.00;;;21.10;36.30;;;;;;5094281;28;20511;-69
2021/01/07 12:40:35;;;;;;;3.13;0.20;;;21.10;36.30;;;;;;4993750;28;20046;-69
2021/01/07 12:43:01;;;;;;;0.00;0.00;;;21.10;36.40;;;;;;4977447;28;20047;-69
2021/01/07 12:45:27;;;;;;;0.20;0.20;;;21.10;36.40;;;;;;4989854;28;20448;-70
2021/01/07 12:47:53;;;;;;;0.00;0.00;;;21.10;36.40;;;;;;4974959;28;20080;-70
2021/01/07 12:50:19;;;;;;;0.00;0.00;;;21.10;36.40;;;;;;4985064;28;20041;-69
2021/01/07 12:52:45;;;;;;;0.00;0.00;;;21.10;36.40;;;;;;4988322;28;20038;-73
2021/01/07 12:55:10;;;;;;;0.10;0.10;;;21.10;36.40;;;;;;4981980;28;20038;-74
2021/01/07 12:57:54;;;;;;;0.00;0.00;;;21.10;36.40;;;;;;4994391;28;20058;-73
2021/01/07 13:00:22;;;;;;;4.57;0.55;;;21.10;36.40;;;;;;4977565;28;20420;-73
2021/01/07 13:03:05;;;;;;;0.00;0.00;;;21.00;36.40;;;;;;4994792;28;20057;-73
2021/01/07 13:05:36;;;;;;;0.00;0.00;;;21.10;36.40;;;;;;4983461;28;20128;-72